sensor_id;sensor_type;location;lat;lon;timestamp;P1;durP1;ratioP1;P2;durP2;ratioP2
5493;SDS011;2769;49.864;8.656;2023-02-01T00:00:54;10.63;;;7.03;;
5493;SDS011;2769;49.864;8.656;2023-02-01T00:03:22;7.17;;;6.47;;
5493;SDS011;2769;49.864;8.656;2023-02-01T00:05:56;7.00;;;6.37;;
5493;SDS011;2769;49.864;8.656;2023-02-01T00:08:25;7.97;;;6.40;;
5493;SDS011;2769;49.864;8.656;2023-02-01T00:10:57;8.33;;;6.80;;
5493;SDS011;2769;49.864;8.656;2023-02-01T00:13:27;7.63;;;6.30;;
5493;SDS011;2769;49.864;8.656;2023-02-01T00:16:04;7.57;;;6.77;;
5493;SDS011;2769;49.864;8.656;2023-02-01T00:18:33;8.97;;;6.40;;
5493;SDS011;2769;49.864;8.656;2023-02-01T00:21:01;7.70;;;7.00;;
5493;SDS011;2769;49.864;8.656;2023-02-01T00:23:32;8.13;;;6.97;;
5493;SDS011;2769;49.864;8.656;2023-02-01T00:26:02;9.63;;;6.50;;
5493;SDS011;2769;49.864;8.656;2023-02-01T00:28:30;6.90;;;5.83;;
5493;SDS011;2769;49.864;8.656;2023-02-01T00:30:59;8.80;;;6.50;;
5493;SDS011;2769;49.864;8.656;2023-02-01T00:33:28;8.30;;;7.07;;
5493;SDS011;2769;49.864;8.656;2023-02-01T00:35:57;8.23;;;6.47;;
5493;SDS011;2769;49.864;8.656;2023-02-01T00:38:25;11.00;;;7.20;;
5493;SDS011;2769;49.864;8.656;2023-02-01T00:41:01;8.50;;;6.90;;
5493;SDS011;2769;49.864;8.656;2023-02-01T00:43:30;9.87;;;6.70;;
5493;SDS011;2769;49.864;8.656;2023-02-01T00:45:59;8.23;;;7.40;;
5493;SDS011;2769;49.864;8.656;2023-02-01T00:48:28;9.80;;;7.40;;
5493;SDS011;2769;49.864;8.656;2023-02-01T00:50:58;9.73;;;7.10;;
5493;SDS011;2769;49.864;8.656;2023-02-01T00:53:27;11.73;;;7.60;;
5493;SDS011;2769;49.864;8.656;2023-02-01T00:55:56;8.57;;;7.70;;
5493;SDS011;2769;49.864;8.656;2023-02-01T00:58:25;8.97;;;7.50;;
5493;SDS011;2769;49.864;8.656;2023-02-01T01:01:00;8.07;;;7.00;;
5493;SDS011;2769;49.864;8.656;2023-02-01T01:03:29;10.27;;;7.50;;
5493;SDS011;2769;49.864;8.656;2023-02-01T01:06:00;11.93;;;7.70;;
5493;SDS011;2769;49.864;8.656;2023-02-01T01:08:29;12.73;;;7.97;;
5493;SDS011;2769;49.864;8.656;2023-02-01T01:10:58;10.30;;;7.63;;
5493;SDS011;2769;49.864;8.656;2023-02-01T01:13:26;9.60;;;7.00;;
5493;SDS011;2769;49.864;8.656;2023-02-01T01:15:54;10.77;;;7.90;;
5493;SDS011;2769;49.864;8.656;2023-02-01T01:18:22;8.63;;;6.47;;
5493;SDS011;2769;49.864;8.656;2023-02-01T01:20:50;8.50;;;7.50;;
5493;SDS011;2769;49.864;8.656;2023-02-01T01:23:18;12.23;;;8.10;;
5493;SDS011;2769;49.864;8.656;2023-02-01T01:25:46;8.40;;;7.20;;
5493;SDS011;2769;49.864;8.656;2023-02-01T01:28:16;10.20;;;8.30;;
5493;SDS011;2769;49.864;8.656;2023-02-01T01:30:44;9.10;;;7.90;;
5493;SDS011;2769;49.864;8.656;2023-02-01T01:33:12;9.87;;;7.53;;
5493;SDS011;2769;49.864;8.656;2023-02-01T01:35:40;8.30;;;6.80;;
5493;SDS011;2769;49.864;8.656;2023-02-01T01:38:08;11.17;;;7.10;;
5493;SDS011;2769;49.864;8.656;2023-02-01T01:40:37;8.53;;;6.70;;
5493;SDS011;2769;49.864;8.656;2023-02-01T01:43:10;9.23;;;7.20;;
5493;SDS011;2769;49.864;8.656;2023-02-01T01:45:42;10.30;;;7.40;;
5493;SDS011;2769;49.864;8.656;2023-02-01T01:48:11;16.87;;;7.90;;
5493;SDS011;2769;49.864;8.656;2023-02-01T01:50:42;15.07;;;8.33;;
5493;SDS011;2769;49.864;8.656;2023-02-01T01:53:15;10.47;;;7.67;;
5493;SDS011;2769;49.864;8.656;2023-02-01T01:55:46;10.27;;;7.80;;
5493;SDS011;2769;49.864;8.656;2023-02-01T01:58:18;10.40;;;7.47;;
5493;SDS011;2769;49.864;8.656;2023-02-01T02:00:48;11.27;;;8.30;;
5493;SDS011;2769;49.864;8.656;2023-02-01T02:03:18;15.43;;;8.00;;
5493;SDS011;2769;49.864;8.656;2023-02-01T02:05:49;11.93;;;8.13;;
5493;SDS011;2769;49.864;8.656;2023-02-01T02:08:18;12.30;;;6.70;;
5493;SDS011;2769;49.864;8.656;2023-02-01T02:10:47;11.20;;;8.20;;
5493;SDS011;2769;49.864;8.656;2023-02-01T02:13:29;13.10;;;9.20;;
5493;SDS011;2769;49.864;8.656;2023-02-01T02:16:05;11.93;;;8.60;;
5493;SDS011;2769;49.864;8.656;2023-02-01T02:18:44;10.63;;;7.83;;
5493;SDS011;2769;49.864;8.656;2023-02-01T02:21:17;11.67;;;7.10;;
5493;SDS011;2769;49.864;8.656;2023-02-01T02:26:47;10.60;;;8.57;;
5493;SDS011;2769;49.864;8.656;2023-02-01T02:32:44;10.67;;;8.40;;
5493;SDS011;2769;49.864;8.656;2023-02-01T02:35:24;11.70;;;8.43;;
5493;SDS011;2769;49.864;8.656;2023-02-01T02:37:55;14.17;;;8.50;;
5493;SDS011;2769;49.864;8.656;2023-02-01T02:40:31;11.77;;;8.00;;
5493;SDS011;2769;49.864;8.656;2023-02-01T02:43:03;13.57;;;7.80;;
5493;SDS011;2769;49.864;8.656;2023-02-01T02:45:53;11.07;;;8.10;;
5493;SDS011;2769;49.864;8.656;2023-02-01T02:48:42;10.20;;;7.40;;
5493;SDS011;2769;49.864;8.656;2023-02-01T02:51:14;8.90;;;7.27;;
5493;SDS011;2769;49.864;8.656;2023-02-01T02:54:05;10.30;;;7.50;;
5493;SDS011;2769;49.864;8.656;2023-02-01T02:56:52;9.37;;;7.47;;
5493;SDS011;2769;49.864;8.656;2023-02-01T02:59:39;18.63;;;8.63;;
5493;SDS011;2769;49.864;8.656;2023-02-01T03:02:25;14.97;;;8.73;;
5493;SDS011;2769;49.864;8.656;2023-02-01T03:05:12;19.20;;;9.23;;
5493;SDS011;2769;49.864;8.656;2023-02-01T03:07:52;16.17;;;10.30;;
5493;SDS011;2769;49.864;8.656;2023-02-01T03:10:24;18.37;;;11.17;;
5493;SDS011;2769;49.864;8.656;2023-02-01T03:12:59;18.50;;;11.53;;
5493;SDS011;2769;49.864;8.656;2023-02-01T03:15:30;20.37;;;12.00;;
5493;SDS011;2769;49.864;8.656;2023-02-01T03:18:00;17.10;;;11.47;;
5493;SDS011;2769;49.864;8.656;2023-02-01T03:20:30;16.87;;;11.20;;
5493;SDS011;2769;49.864;8.656;2023-02-01T03:23:00;18.13;;;10.43;;
5493;SDS011;2769;49.864;8.656;2023-02-01T03:25:30;19.03;;;10.60;;
5493;SDS011;2769;49.864;8.656;2023-02-01T03:28:00;14.10;;;9.33;;
5493;SDS011;2769;49.864;8.656;2023-02-01T03:30:31;12.37;;;8.13;;
5493;SDS011;2769;49.864;8.656;2023-02-01T03:33:00;10.70;;;8.80;;
5493;SDS011;2769;49.864;8.656;2023-02-01T03:35:33;16.57;;;9.27;;
5493;SDS011;2769;49.864;8.656;2023-02-01T03:38:07;11.80;;;8.87;;
5493;SDS011;2769;49.864;8.656;2023-02-01T03:40:40;15.30;;;9.60;;
5493;SDS011;2769;49.864;8.656;2023-02-01T03:43:09;12.30;;;9.47;;
5493;SDS011;2769;49.864;8.656;2023-02-01T03:45:41;10.30;;;9.00;;
5493;SDS011;2769;49.864;8.656;2023-02-01T03:48:11;9.40;;;7.53;;
5493;SDS011;2769;49.864;8.656;2023-02-01T03:50:43;14.20;;;8.80;;
5493;SDS011;2769;49.864;8.656;2023-02-01T03:53:14;12.13;;;9.33;;
5493;SDS011;2769;49.864;8.656;2023-02-01T03:55:45;11.90;;;8.23;;
5493;SDS011;2769;49.864;8.656;2023-02-01T03:58:14;13.30;;;8.87;;
5493;SDS011;2769;49.864;8.656;2023-02-01T04:00:44;12.00;;;8.50;;
5493;SDS011;2769;49.864;8.656;2023-02-01T04:03:14;11.33;;;6.57;;
5493;SDS011;2769;49.864;8.656;2023-02-01T04:05:41;9.87;;;8.73;;
5493;SDS011;2769;49.864;8.656;2023-02-01T04:08:11;13.97;;;8.37;;
5493;SDS011;2769;49.864;8.656;2023-02-01T04:10:40;11.03;;;8.20;;
5493;SDS011;2769;49.864;8.656;2023-02-01T04:13:08;12.57;;;8.50;;
5493;SDS011;2769;49.864;8.656;2023-02-01T04:15:36;12.00;;;8.30;;
5493;SDS011;2769;49.864;8.656;2023-02-01T04:18:04;13.30;;;8.90;;
5493;SDS011;2769;49.864;8.656;2023-02-01T04:20:32;14.60;;;9.23;;
5493;SDS011;2769;49.864;8.656;2023-02-01T04:23:00;10.80;;;8.80;;
5493;SDS011;2769;49.864;8.656;2023-02-01T04:25:28;16.10;;;8.83;;
5493;SDS011;2769;49.864;8.656;2023-02-01T04:27:58;15.40;;;9.20;;
5493;SDS011;2769;49.864;8.656;2023-02-01T04:30:26;14.40;;;9.17;;
5493;SDS011;2769;49.864;8.656;2023-02-01T04:32:54;17.27;;;9.57;;
5493;SDS011;2769;49.864;8.656;2023-02-01T04:35:22;12.10;;;8.73;;
5493;SDS011;2769;49.864;8.656;2023-02-01T04:37:50;9.67;;;7.90;;
5493;SDS011;2769;49.864;8.656;2023-02-01T04:40:18;11.50;;;7.33;;
5493;SDS011;2769;49.864;8.656;2023-02-01T04:42:46;10.67;;;7.40;;
5493;SDS011;2769;49.864;8.656;2023-02-01T04:45:16;11.23;;;8.30;;
5493;SDS011;2769;49.864;8.656;2023-02-01T04:47:44;11.77;;;7.43;;
5493;SDS011;2769;49.864;8.656;2023-02-01T04:50:14;14.17;;;6.93;;
5493;SDS011;2769;49.864;8.656;2023-02-01T04:52:43;9.60;;;6.60;;
5493;SDS011;2769;49.864;8.656;2023-02-01T04:55:11;9.90;;;6.70;;
5493;SDS011;2769;49.864;8.656;2023-02-01T04:57:40;9.50;;;6.60;;
5493;SDS011;2769;49.864;8.656;2023-02-01T05:00:08;9.90;;;6.90;;
5493;SDS011;2769;49.864;8.656;2023-02-01T05:02:38;12.93;;;7.00;;
5493;SDS011;2769;49.864;8.656;2023-02-01T05:05:06;8.47;;;5.83;;
5493;SDS011;2769;49.864;8.656;2023-02-01T05:07:35;7.70;;;5.97;;
5493;SDS011;2769;49.864;8.656;2023-02-01T05:10:03;6.40;;;5.33;;
5493;SDS011;2769;49.864;8.656;2023-02-01T05:12:31;6.80;;;5.53;;
5493;SDS011;2769;49.864;8.656;2023-02-01T05:15:16;7.13;;;5.47;;
5493;SDS011;2769;49.864;8.656;2023-02-01T05:17:46;6.53;;;5.50;;
5493;SDS011;2769;49.864;8.656;2023-02-01T05:20:14;4.53;;;4.23;;
5493;SDS011;2769;49.864;8.656;2023-02-01T05:22:41;7.93;;;4.90;;
5493;SDS011;2769;49.864;8.656;2023-02-01T05:25:10;6.57;;;4.50;;
5493;SDS011;2769;49.864;8.656;2023-02-01T05:27:38;4.77;;;3.80;;
5493;SDS011;2769;49.864;8.656;2023-02-01T05:30:06;5.30;;;3.90;;
5493;SDS011;2769;49.864;8.656;2023-02-01T05:32:35;6.77;;;3.80;;
5493;SDS011;2769;49.864;8.656;2023-02-01T05:35:05;11.80;;;3.77;;
5493;SDS011;2769;49.864;8.656;2023-02-01T05:37:33;5.83;;;3.40;;
5493;SDS011;2769;49.864;8.656;2023-02-01T05:40:01;7.50;;;4.20;;
5493;SDS011;2769;49.864;8.656;2023-02-01T05:42:30;4.20;;;3.27;;
5493;SDS011;2769;49.864;8.656;2023-02-01T05:44:57;5.07;;;3.40;;
5493;SDS011;2769;49.864;8.656;2023-02-01T05:47:26;6.00;;;2.73;;
5493;SDS011;2769;49.864;8.656;2023-02-01T05:49:54;5.10;;;3.50;;
5493;SDS011;2769;49.864;8.656;2023-02-01T05:52:23;4.90;;;3.43;;
5493;SDS011;2769;49.864;8.656;2023-02-01T05:54:51;5.03;;;2.70;;
5493;SDS011;2769;49.864;8.656;2023-02-01T05:57:19;2.83;;;2.50;;
5493;SDS011;2769;49.864;8.656;2023-02-01T05:59:47;5.20;;;2.80;;
5493;SDS011;2769;49.864;8.656;2023-02-01T06:02:15;2.77;;;2.50;;
5493;SDS011;2769;49.864;8.656;2023-02-01T06:04:44;3.73;;;2.50;;
5493;SDS011;2769;49.864;8.656;2023-02-01T06:07:12;2.80;;;2.27;;
5493;SDS011;2769;49.864;8.656;2023-02-01T06:09:42;4.07;;;2.80;;
5493;SDS011;2769;49.864;8.656;2023-02-01T06:12:09;5.47;;;2.57;;
5493;SDS011;2769;49.864;8.656;2023-02-01T06:14:37;6.43;;;2.37;;
5493;SDS011;2769;49.864;8.656;2023-02-01T06:17:05;5.20;;;2.60;;
5493;SDS011;2769;49.864;8.656;2023-02-01T06:19:33;2.90;;;2.50;;
5493;SDS011;2769;49.864;8.656;2023-02-01T06:22:01;7.07;;;2.80;;
5493;SDS011;2769;49.864;8.656;2023-02-01T06:24:32;6.33;;;2.50;;
5493;SDS011;2769;49.864;8.656;2023-02-01T06:27:01;2.67;;;2.47;;
5493;SDS011;2769;49.864;8.656;2023-02-01T06:29:29;4.30;;;2.40;;
5493;SDS011;2769;49.864;8.656;2023-02-01T06:31:57;3.13;;;2.27;;
5493;SDS011;2769;49.864;8.656;2023-02-01T06:34:25;4.03;;;2.50;;
5493;SDS011;2769;49.864;8.656;2023-02-01T06:36:53;4.40;;;2.10;;
5493;SDS011;2769;49.864;8.656;2023-02-01T06:39:21;5.27;;;3.20;;
5493;SDS011;2769;49.864;8.656;2023-02-01T06:41:49;3.23;;;2.50;;
5493;SDS011;2769;49.864;8.656;2023-02-01T06:44:18;2.63;;;2.40;;
5493;SDS011;2769;49.864;8.656;2023-02-01T06:46:47;3.73;;;2.67;;
5493;SDS011;2769;49.864;8.656;2023-02-01T06:49:15;4.07;;;2.50;;
5493;SDS011;2769;49.864;8.656;2023-02-01T06:51:43;5.60;;;2.97;;
5493;SDS011;2769;49.864;8.656;2023-02-01T06:54:10;6.10;;;2.80;;
5493;SDS011;2769;49.864;8.656;2023-02-01T06:56:38;5.07;;;2.90;;
5493;SDS011;2769;49.864;8.656;2023-02-01T06:59:07;10.80;;;3.40;;
5493;SDS011;2769;49.864;8.656;2023-02-01T07:01:36;3.53;;;2.90;;
5493;SDS011;2769;49.864;8.656;2023-02-01T07:04:04;5.37;;;3.17;;
5493;SDS011;2769;49.864;8.656;2023-02-01T07:06:32;8.50;;;3.33;;
5493;SDS011;2769;49.864;8.656;2023-02-01T07:09:00;7.90;;;2.43;;
5493;SDS011;2769;49.864;8.656;2023-02-01T07:11:28;4.80;;;2.80;;
5493;SDS011;2769;49.864;8.656;2023-02-01T07:13:57;10.07;;;2.73;;
5493;SDS011;2769;49.864;8.656;2023-02-01T07:16:25;5.90;;;2.33;;
5493;SDS011;2769;49.864;8.656;2023-02-01T07:18:55;6.60;;;2.80;;
5493;SDS011;2769;49.864;8.656;2023-02-01T07:21:23;7.13;;;3.07;;
5493;SDS011;2769;49.864;8.656;2023-02-01T07:23:51;4.80;;;2.57;;
5493;SDS011;2769;49.864;8.656;2023-02-01T07:26:19;2.90;;;2.50;;
5493;SDS011;2769;49.864;8.656;2023-02-01T07:28:47;8.87;;;3.43;;
5493;SDS011;2769;49.864;8.656;2023-02-01T07:31:16;7.63;;;2.80;;
5493;SDS011;2769;49.864;8.656;2023-02-01T07:33:47;5.27;;;3.47;;
5493;SDS011;2769;49.864;8.656;2023-02-01T07:36:19;3.17;;;2.83;;
5493;SDS011;2769;49.864;8.656;2023-02-01T07:38:47;6.73;;;3.13;;
5493;SDS011;2769;49.864;8.656;2023-02-01T07:41:15;3.97;;;3.20;;
5493;SDS011;2769;49.864;8.656;2023-02-01T07:43:44;8.70;;;3.80;;
5493;SDS011;2769;49.864;8.656;2023-02-01T07:46:12;7.80;;;3.97;;
5493;SDS011;2769;49.864;8.656;2023-02-01T07:48:43;7.70;;;4.97;;
5493;SDS011;2769;49.864;8.656;2023-02-01T07:51:12;7.53;;;4.10;;
5493;SDS011;2769;49.864;8.656;2023-02-01T07:53:42;5.50;;;4.10;;
5493;SDS011;2769;49.864;8.656;2023-02-01T07:56:11;14.20;;;4.40;;
5493;SDS011;2769;49.864;8.656;2023-02-01T07:58:40;11.93;;;5.63;;
5493;SDS011;2769;49.864;8.656;2023-02-01T08:01:13;9.67;;;6.00;;
5493;SDS011;2769;49.864;8.656;2023-02-01T08:03:48;6.37;;;5.00;;
5493;SDS011;2769;49.864;8.656;2023-02-01T08:06:17;9.40;;;6.00;;
5493;SDS011;2769;49.864;8.656;2023-02-01T08:08:47;11.73;;;5.93;;
5493;SDS011;2769;49.864;8.656;2023-02-01T08:11:16;10.57;;;6.30;;
5493;SDS011;2769;49.864;8.656;2023-02-01T08:13:45;14.97;;;6.67;;
5493;SDS011;2769;49.864;8.656;2023-02-01T08:16:14;15.67;;;5.97;;
5493;SDS011;2769;49.864;8.656;2023-02-01T08:18:42;10.27;;;6.20;;
5493;SDS011;2769;49.864;8.656;2023-02-01T08:21:11;13.63;;;6.17;;
5493;SDS011;2769;49.864;8.656;2023-02-01T08:23:41;10.57;;;5.63;;
5493;SDS011;2769;49.864;8.656;2023-02-01T08:26:12;13.40;;;5.93;;
5493;SDS011;2769;49.864;8.656;2023-02-01T08:28:41;10.07;;;6.00;;
5493;SDS011;2769;49.864;8.656;2023-02-01T08:31:11;11.00;;;4.80;;
5493;SDS011;2769;49.864;8.656;2023-02-01T08:33:41;8.80;;;5.40;;
5493;SDS011;2769;49.864;8.656;2023-02-01T08:36:10;10.97;;;4.30;;
5493;SDS011;2769;49.864;8.656;2023-02-01T08:38:38;9.17;;;4.87;;
5493;SDS011;2769;49.864;8.656;2023-02-01T08:41:07;11.30;;;4.30;;
5493;SDS011;2769;49.864;8.656;2023-02-01T08:43:38;14.33;;;5.53;;
5493;SDS011;2769;49.864;8.656;2023-02-01T08:46:06;13.60;;;4.60;;
5493;SDS011;2769;49.864;8.656;2023-02-01T08:48:34;14.20;;;5.00;;
5493;SDS011;2769;49.864;8.656;2023-02-01T08:51:03;8.63;;;4.17;;
5493;SDS011;2769;49.864;8.656;2023-02-01T08:53:31;9.37;;;4.27;;
5493;SDS011;2769;49.864;8.656;2023-02-01T08:55:59;4.70;;;3.87;;
5493;SDS011;2769;49.864;8.656;2023-02-01T08:58:28;22.60;;;4.60;;
5493;SDS011;2769;49.864;8.656;2023-02-01T09:01:01;8.10;;;3.70;;
5493;SDS011;2769;49.864;8.656;2023-02-01T09:03:30;10.33;;;3.60;;
5493;SDS011;2769;49.864;8.656;2023-02-01T09:06:01;14.87;;;3.90;;
5493;SDS011;2769;49.864;8.656;2023-02-01T09:08:30;13.43;;;3.60;;
5493;SDS011;2769;49.864;8.656;2023-02-01T09:11:00;13.00;;;3.70;;
5493;SDS011;2769;49.864;8.656;2023-02-01T09:13:29;12.13;;;3.50;;
5493;SDS011;2769;49.864;8.656;2023-02-01T09:15:59;9.73;;;3.83;;
5493;SDS011;2769;49.864;8.656;2023-02-01T09:18:27;13.83;;;3.87;;
5493;SDS011;2769;49.864;8.656;2023-02-01T09:20:57;10.87;;;3.63;;
5493;SDS011;2769;49.864;8.656;2023-02-01T09:23:25;12.70;;;3.50;;
5493;SDS011;2769;49.864;8.656;2023-02-01T09:25:54;8.10;;;3.23;;
5493;SDS011;2769;49.864;8.656;2023-02-01T09:28:22;9.23;;;3.13;;
5493;SDS011;2769;49.864;8.656;2023-02-01T09:30:54;14.77;;;3.40;;
5493;SDS011;2769;49.864;8.656;2023-02-01T09:33:25;5.97;;;3.00;;
5493;SDS011;2769;49.864;8.656;2023-02-01T09:35:57;8.87;;;3.40;;
5493;SDS011;2769;49.864;8.656;2023-02-01T09:38:27;7.03;;;3.23;;
5493;SDS011;2769;49.864;8.656;2023-02-01T09:40:57;6.20;;;2.43;;
5493;SDS011;2769;49.864;8.656;2023-02-01T09:43:30;6.70;;;1.80;;
5493;SDS011;2769;49.864;8.656;2023-02-01T09:46:12;7.37;;;2.27;;
5493;SDS011;2769;49.864;8.656;2023-02-01T09:48:48;10.23;;;2.40;;
5493;SDS011;2769;49.864;8.656;2023-02-01T09:51:18;6.77;;;1.53;;
5493;SDS011;2769;49.864;8.656;2023-02-01T09:53:52;19.63;;;3.20;;
5493;SDS011;2769;49.864;8.656;2023-02-01T09:56:26;8.70;;;2.37;;
5493;SDS011;2769;49.864;8.656;2023-02-01T09:58:59;7.53;;;2.23;;
5493;SDS011;2769;49.864;8.656;2023-02-01T10:01:30;7.40;;;2.27;;
5493;SDS011;2769;49.864;8.656;2023-02-01T10:04:01;8.93;;;2.50;;
5493;SDS011;2769;49.864;8.656;2023-02-01T10:06:36;6.77;;;1.80;;
5493;SDS011;2769;49.864;8.656;2023-02-01T10:09:14;14.20;;;2.77;;
5493;SDS011;2769;49.864;8.656;2023-02-01T10:11:52;10.63;;;2.10;;
5493;SDS011;2769;49.864;8.656;2023-02-01T10:14:32;5.60;;;1.77;;
5493;SDS011;2769;49.864;8.656;2023-02-01T10:17:13;6.87;;;2.23;;
5493;SDS011;2769;49.864;8.656;2023-02-01T10:19:51;7.97;;;2.40;;
5493;SDS011;2769;49.864;8.656;2023-02-01T10:22:27;8.03;;;2.03;;
5493;SDS011;2769;49.864;8.656;2023-02-01T10:25:21;8.83;;;1.80;;
5493;SDS011;2769;49.864;8.656;2023-02-01T10:27:51;16.40;;;2.60;;
5493;SDS011;2769;49.864;8.656;2023-02-01T10:30:20;9.37;;;3.00;;
5493;SDS011;2769;49.864;8.656;2023-02-01T10:32:52;10.60;;;2.63;;
5493;SDS011;2769;49.864;8.656;2023-02-01T10:35:26;16.33;;;3.00;;
5493;SDS011;2769;49.864;8.656;2023-02-01T10:37:58;15.03;;;3.20;;
5493;SDS011;2769;49.864;8.656;2023-02-01T10:40:27;9.83;;;2.10;;
5493;SDS011;2769;49.864;8.656;2023-02-01T10:42:56;7.13;;;2.63;;
5493;SDS011;2769;49.864;8.656;2023-02-01T10:45:26;8.87;;;2.20;;
5493;SDS011;2769;49.864;8.656;2023-02-01T10:47:55;9.90;;;2.37;;
5493;SDS011;2769;49.864;8.656;2023-02-01T10:50:29;7.60;;;2.27;;
5493;SDS011;2769;49.864;8.656;2023-02-01T10:53:03;8.57;;;2.07;;
5493;SDS011;2769;49.864;8.656;2023-02-01T10:55:35;9.30;;;2.27;;
5493;SDS011;2769;49.864;8.656;2023-02-01T10:58:07;12.60;;;2.10;;
5493;SDS011;2769;49.864;8.656;2023-02-01T11:00:44;11.73;;;2.17;;
5493;SDS011;2769;49.864;8.656;2023-02-01T11:03:21;11.83;;;3.20;;
5493;SDS011;2769;49.864;8.656;2023-02-01T11:06:17;13.50;;;2.60;;
5493;SDS011;2769;49.864;8.656;2023-02-01T11:08:48;3.03;;;2.00;;
5493;SDS011;2769;49.864;8.656;2023-02-01T11:11:16;12.97;;;2.87;;
5493;SDS011;2769;49.864;8.656;2023-02-01T11:13:51;6.03;;;2.33;;
5493;SDS011;2769;49.864;8.656;2023-02-01T11:16:20;13.17;;;2.67;;
5493;SDS011;2769;49.864;8.656;2023-02-01T11:18:52;5.47;;;2.57;;
5493;SDS011;2769;49.864;8.656;2023-02-01T11:21:23;8.53;;;2.30;;
5493;SDS011;2769;49.864;8.656;2023-02-01T11:23:51;11.30;;;2.30;;
5493;SDS011;2769;49.864;8.656;2023-02-01T11:26:21;6.70;;;1.87;;
5493;SDS011;2769;49.864;8.656;2023-02-01T11:28:51;8.03;;;1.70;;
5493;SDS011;2769;49.864;8.656;2023-02-01T11:31:21;15.23;;;2.60;;
5493;SDS011;2769;49.864;8.656;2023-02-01T11:33:50;11.80;;;2.30;;
5493;SDS011;2769;49.864;8.656;2023-02-01T11:36:23;11.40;;;2.43;;
5493;SDS011;2769;49.864;8.656;2023-02-01T11:38:54;7.27;;;2.57;;
5493;SDS011;2769;49.864;8.656;2023-02-01T11:41:40;5.23;;;2.63;;
5493;SDS011;2769;49.864;8.656;2023-02-01T11:44:20;11.43;;;2.43;;
5493;SDS011;2769;49.864;8.656;2023-02-01T11:46:49;11.47;;;2.47;;
5493;SDS011;2769;49.864;8.656;2023-02-01T11:49:21;7.90;;;2.73;;
5493;SDS011;2769;49.864;8.656;2023-02-01T11:51:55;7.13;;;2.30;;
5493;SDS011;2769;49.864;8.656;2023-02-01T11:54:38;10.50;;;2.57;;
5493;SDS011;2769;49.864;8.656;2023-02-01T11:57:18;8.40;;;3.23;;
5493;SDS011;2769;49.864;8.656;2023-02-01T12:00:02;11.50;;;2.30;;
5493;SDS011;2769;49.864;8.656;2023-02-01T12:05:41;6.00;;;1.70;;
5493;SDS011;2769;49.864;8.656;2023-02-01T12:08:29;6.00;;;1.83;;
5493;SDS011;2769;49.864;8.656;2023-02-01T12:11:20;7.37;;;2.47;;
5493;SDS011;2769;49.864;8.656;2023-02-01T12:13:54;6.70;;;2.30;;
5493;SDS011;2769;49.864;8.656;2023-02-01T12:16:31;9.50;;;2.30;;
5493;SDS011;2769;49.864;8.656;2023-02-01T12:19:14;8.27;;;2.60;;
5493;SDS011;2769;49.864;8.656;2023-02-01T12:22:04;9.30;;;1.97;;
5493;SDS011;2769;49.864;8.656;2023-02-01T12:24:48;5.53;;;1.90;;
5493;SDS011;2769;49.864;8.656;2023-02-01T12:30:46;5.67;;;2.50;;
5493;SDS011;2769;49.864;8.656;2023-02-01T12:33:34;10.80;;;2.23;;
5493;SDS011;2769;49.864;8.656;2023-02-01T12:36:12;5.90;;;2.30;;
5493;SDS011;2769;49.864;8.656;2023-02-01T12:38:44;6.90;;;1.90;;
5493;SDS011;2769;49.864;8.656;2023-02-01T12:41:37;6.60;;;2.10;;
5493;SDS011;2769;49.864;8.656;2023-02-01T12:44:17;4.00;;;2.20;;
5493;SDS011;2769;49.864;8.656;2023-02-01T12:46:54;10.00;;;2.40;;
5493;SDS011;2769;49.864;8.656;2023-02-01T12:49:27;12.07;;;2.63;;
5493;SDS011;2769;49.864;8.656;2023-02-01T12:51:58;11.40;;;3.03;;
5493;SDS011;2769;49.864;8.656;2023-02-01T12:54:30;3.63;;;1.93;;
5493;SDS011;2769;49.864;8.656;2023-02-01T12:57:03;7.90;;;3.20;;
5493;SDS011;2769;49.864;8.656;2023-02-01T12:59:35;6.20;;;1.97;;
5493;SDS011;2769;49.864;8.656;2023-02-01T13:02:06;9.57;;;2.30;;
5493;SDS011;2769;49.864;8.656;2023-02-01T13:04:42;8.23;;;2.30;;
5493;SDS011;2769;49.864;8.656;2023-02-01T13:07:18;5.77;;;2.10;;
5493;SDS011;2769;49.864;8.656;2023-02-01T13:09:49;10.30;;;2.30;;
5493;SDS011;2769;49.864;8.656;2023-02-01T13:12:23;10.20;;;2.50;;
5493;SDS011;2769;49.864;8.656;2023-02-01T13:14:56;8.87;;;2.27;;
5493;SDS011;2769;49.864;8.656;2023-02-01T13:17:26;11.57;;;2.50;;
5493;SDS011;2769;49.864;8.656;2023-02-01T13:19:59;7.33;;;2.10;;
5493;SDS011;2769;49.864;8.656;2023-02-01T13:22:31;7.70;;;2.03;;
5493;SDS011;2769;49.864;8.656;2023-02-01T13:25:02;8.80;;;2.80;;
5493;SDS011;2769;49.864;8.656;2023-02-01T13:27:34;5.00;;;1.60;;
5493;SDS011;2769;49.864;8.656;2023-02-01T13:30:03;10.40;;;2.40;;
5493;SDS011;2769;49.864;8.656;2023-02-01T13:36:01;7.43;;;2.50;;
5493;SDS011;2769;49.864;8.656;2023-02-01T13:38:43;8.73;;;2.50;;
5493;SDS011;2769;49.864;8.656;2023-02-01T13:41:24;5.20;;;2.47;;
5493;SDS011;2769;49.864;8.656;2023-02-01T13:43:59;8.77;;;2.80;;
5493;SDS011;2769;49.864;8.656;2023-02-01T13:46:30;4.60;;;2.50;;
5493;SDS011;2769;49.864;8.656;2023-02-01T13:49:06;5.63;;;2.00;;
5493;SDS011;2769;49.864;8.656;2023-02-01T13:51:41;5.87;;;2.63;;
5493;SDS011;2769;49.864;8.656;2023-02-01T13:54:23;6.27;;;1.93;;
5493;SDS011;2769;49.864;8.656;2023-02-01T13:56:53;9.57;;;2.10;;
5493;SDS011;2769;49.864;8.656;2023-02-01T13:59:50;5.10;;;1.90;;
5493;SDS011;2769;49.864;8.656;2023-02-01T14:08:46;6.20;;;1.80;;
5493;SDS011;2769;49.864;8.656;2023-02-01T14:11:41;6.87;;;2.33;;
5493;SDS011;2769;49.864;8.656;2023-02-01T14:23:04;10.63;;;1.70;;
5493;SDS011;2769;49.864;8.656;2023-02-01T14:25:39;9.40;;;2.37;;
5493;SDS011;2769;49.864;8.656;2023-02-01T14:28:11;9.53;;;2.20;;
5493;SDS011;2769;49.864;8.656;2023-02-01T14:30:45;7.23;;;2.10;;
5493;SDS011;2769;49.864;8.656;2023-02-01T14:33:19;13.23;;;2.57;;
5493;SDS011;2769;49.864;8.656;2023-02-01T14:35:57;8.10;;;2.00;;
5493;SDS011;2769;49.864;8.656;2023-02-01T14:38:30;17.70;;;2.40;;
5493;SDS011;2769;49.864;8.656;2023-02-01T14:44:21;6.47;;;2.00;;
5493;SDS011;2769;49.864;8.656;2023-02-01T14:47:09;8.93;;;2.60;;
5493;SDS011;2769;49.864;8.656;2023-02-01T14:49:39;11.00;;;2.50;;
5493;SDS011;2769;49.864;8.656;2023-02-01T14:52:19;10.50;;;2.10;;
5493;SDS011;2769;49.864;8.656;2023-02-01T14:54:49;8.50;;;2.50;;
5493;SDS011;2769;49.864;8.656;2023-02-01T14:57:20;7.13;;;2.30;;
5493;SDS011;2769;49.864;8.656;2023-02-01T14:59:49;6.50;;;2.30;;
5493;SDS011;2769;49.864;8.656;2023-02-01T15:02:25;10.20;;;2.23;;
5493;SDS011;2769;49.864;8.656;2023-02-01T15:04:54;7.63;;;2.40;;
5493;SDS011;2769;49.864;8.656;2023-02-01T15:07:23;6.53;;;1.97;;
5493;SDS011;2769;49.864;8.656;2023-02-01T15:09:53;7.93;;;2.70;;
5493;SDS011;2769;49.864;8.656;2023-02-01T15:12:24;13.27;;;2.60;;
5493;SDS011;2769;49.864;8.656;2023-02-01T15:15:08;26.20;;;2.53;;
5493;SDS011;2769;49.864;8.656;2023-02-01T15:17:40;13.53;;;2.37;;
5493;SDS011;2769;49.864;8.656;2023-02-01T15:20:13;9.97;;;3.40;;
5493;SDS011;2769;49.864;8.656;2023-02-01T15:22:52;10.13;;;2.40;;
5493;SDS011;2769;49.864;8.656;2023-02-01T15:25:21;11.70;;;2.50;;
5493;SDS011;2769;49.864;8.656;2023-02-01T15:27:51;9.43;;;2.37;;
5493;SDS011;2769;49.864;8.656;2023-02-01T15:30:21;9.50;;;2.50;;
5493;SDS011;2769;49.864;8.656;2023-02-01T15:32:51;5.70;;;2.43;;
5493;SDS011;2769;49.864;8.656;2023-02-01T15:35:37;8.77;;;2.10;;
5493;SDS011;2769;49.864;8.656;2023-02-01T15:41:09;6.80;;;2.50;;
5493;SDS011;2769;49.864;8.656;2023-02-01T15:43:40;7.50;;;1.90;;
5493;SDS011;2769;49.864;8.656;2023-02-01T15:46:11;11.00;;;2.17;;
5493;SDS011;2769;49.864;8.656;2023-02-01T15:48:43;8.20;;;2.20;;
5493;SDS011;2769;49.864;8.656;2023-02-01T15:51:13;13.50;;;2.40;;
5493;SDS011;2769;49.864;8.656;2023-02-01T15:53:45;10.10;;;2.73;;
5493;SDS011;2769;49.864;8.656;2023-02-01T15:56:15;10.43;;;2.60;;
5493;SDS011;2769;49.864;8.656;2023-02-01T15:58:44;12.87;;;2.00;;
5493;SDS011;2769;49.864;8.656;2023-02-01T16:01:13;9.53;;;3.23;;
5493;SDS011;2769;49.864;8.656;2023-02-01T16:03:43;11.10;;;1.70;;
5493;SDS011;2769;49.864;8.656;2023-02-01T16:06:26;5.70;;;1.70;;
5493;SDS011;2769;49.864;8.656;2023-02-01T16:08:55;9.13;;;2.20;;
5493;SDS011;2769;49.864;8.656;2023-02-01T16:11:28;13.63;;;2.57;;
5493;SDS011;2769;49.864;8.656;2023-02-01T16:13:57;7.67;;;2.20;;
5493;SDS011;2769;49.864;8.656;2023-02-01T16:16:26;11.07;;;2.07;;